Time;durP1;ratioP1;P1;durP2;ratioP2;P2;SDS_P1;SDS_P2;PMS_P1;PMS_P2;Temp;Humidity;BMP_temperature;BMP_pressure;BME280_temperature;BME280_humidity;BME280_pressure;Samples;Min_cycle;Max_cycle;Signal;HPM_P1;HPM_P2
2021/12/12 00:00:51;;;;;;;72.72;43.38;;;3.70;99.90;;;;;;5010609;28;20064;-48
2021/12/12 00:03:33;;;;;;;73.18;42.83;;;3.70;99.90;;;;;;5023297;28;20428;-47
2021/12/12 00:06:04;;;;;;;68.35;41.65;;;3.80;99.90;;;;;;5005554;28;20132;-49
2021/12/12 00:08:30;;;;;;;77.25;42.97;;;3.80;99.90;;;;;;5044253;28;20137;-48
2021/12/12 00:11:03;;;;;;;75.18;42.00;;;3.80;99.90;;;;;;5047640;28;20136;-47
2021/12/12 00:13:32;;;;;;;;;;;3.80;99.90;;;;;;5057081;28;20451;-50
2021/12/12 00:15:58;;;;;;;73.90;41.08;;;3.70;99.90;;;;;;5043912;28;19935;-54
2021/12/12 00:18:24;;;;;;;69.07;42.30;;;3.80;99.90;;;;;;5048442;28;20052;-49
2021/12/12 00:20:50;;;;;;;74.05;42.28;;;3.80;99.90;;;;;;5026940;28;20064;-48
2021/12/12 00:23:16;;;;;;;76.45;42.88;;;3.80;99.90;;;;;;5044596;28;20507;-48
2021/12/12 00:25:47;;;;;;;70.90;42.33;;;3.80;99.90;;;;;;5042491;28;20049;-48
2021/12/12 00:28:15;;;;;;;76.18;42.42;;;3.70;99.90;;;;;;5044000;28;20049;-48
2021/12/12 00:30:43;;;;;;;70.20;41.75;;;3.80;99.90;;;;;;5043991;28;20538;-48
2021/12/12 00:33:09;;;;;;;76.47;43.60;;;3.80;99.90;;;;;;5044040;28;20060;-48
2021/12/12 00:35:36;;;;;;;82.38;41.97;;;3.80;99.90;;;;;;5035761;28;20102;-48
2021/12/12 00:38:10;;;;;;;75.25;43.38;;;3.80;99.90;;;;;;5025434;28;20056;-49
2021/12/12 00:40:39;;;;;;;74.13;43.42;;;3.80;99.90;;;;;;5043683;28;20056;-48
2021/12/12 00:43:12;;;;;;;76.28;43.08;;;3.90;99.90;;;;;;5043949;28;20068;-47
2021/12/12 00:45:39;;;;;;;73.05;42.10;;;3.90;99.90;;;;;;5041167;28;20056;-48
2021/12/12 00:48:06;;;;;;;69.93;40.72;;;3.80;99.90;;;;;;5042163;28;20407;-48
2021/12/12 00:50:37;;;;;;;70.40;42.08;;;3.90;99.90;;;;;;5026088;28;20140;-48
2021/12/12 00:53:06;;;;;;;73.63;42.10;;;3.90;99.90;;;;;;5025738;28;20060;-48
2021/12/12 00:55:37;;;;;;;73.20;41.92;;;3.90;99.90;;;;;;5024652;28;20057;-50
2021/12/12 00:58:10;;;;;;;74.75;40.22;;;3.90;99.90;;;;;;5025109;28;20063;-49
2021/12/12 01:00:42;;;;;;;79.60;42.30;;;3.90;99.90;;;;;;5026205;28;20582;-48
2021/12/12 01:03:10;;;;;;;71.77;42.53;;;3.90;99.90;;;;;;5041035;28;20581;-48
2021/12/12 01:05:38;;;;;;;76.35;43.35;;;3.90;99.90;;;;;;5043530;28;20546;-49
2021/12/12 01:08:07;;;;;;;76.78;44.53;;;4.00;99.90;;;;;;5024959;28;20068;-49
2021/12/12 01:10:39;;;;;;;74.40;42.63;;;3.90;99.90;;;;;;5043538;28;20149;-48
2021/12/12 01:13:07;;;;;;;78.32;43.70;;;4.00;99.90;;;;;;5049338;28;20067;-47
2021/12/12 01:15:38;;;;;;;80.35;43.30;;;4.00;99.90;;;;;;5049161;28;20060;-50
2021/12/12 01:18:10;;;;;;;67.47;41.08;;;4.00;99.90;;;;;;5051070;28;20102;-49
2021/12/12 01:20:54;;;;;;;75.75;42.35;;;4.00;99.90;;;;;;5051798;28;20606;-49
2021/12/12 01:23:19;;;;;;;;;;;4.00;99.90;;;;;;5052539;28;20151;-53
2021/12/12 01:26:28;;;;;;;79.28;41.50;;;4.00;99.90;;;;;;5044690;28;20015;-51
2021/12/12 01:28:55;;;;;;;74.35;41.40;;;4.00;99.90;;;;;;5023607;28;20057;-49
2021/12/12 01:31:25;;;;;;;85.22;42.97;;;4.00;99.90;;;;;;5042691;28;20067;-50
2021/12/12 01:34:11;;;;;;;73.68;42.63;;;4.00;99.90;;;;;;5027403;28;20083;-48
2021/12/12 01:36:48;;;;;;;79.30;41.75;;;4.00;99.90;;;;;;5042661;28;20056;-50
2021/12/12 01:39:17;;;;;;;72.85;40.80;;;4.00;99.90;;;;;;5023080;28;20180;-48
2021/12/12 01:42:02;;;;;;;75.03;40.55;;;4.10;99.90;;;;;;5054821;28;20075;-49
2021/12/12 01:44:34;;;;;;;72.88;39.92;;;4.10;99.90;;;;;;5024897;28;20068;-48
2021/12/12 01:47:08;;;;;;;76.45;39.88;;;4.10;99.90;;;;;;5042200;28;20099;-48
2021/12/12 01:49:38;;;;;;;70.28;40.80;;;4.10;99.90;;;;;;5023908;28;20068;-50
2021/12/12 01:52:08;;;;;;;83.85;40.33;;;4.10;99.90;;;;;;5042834;28;20090;-50
2021/12/12 01:54:43;;;;;;;69.32;39.13;;;4.10;99.90;;;;;;5042532;28;20559;-48
2021/12/12 01:57:13;;;;;;;69.85;39.08;;;4.20;99.90;;;;;;5042113;28;20053;-48
2021/12/12 01:59:42;;;;;;;70.95;41.20;;;4.20;99.90;;;;;;5039956;28;20523;-50
2021/12/12 02:02:09;;;;;;;68.35;38.83;;;4.10;99.90;;;;;;5042268;28;20118;-48
2021/12/12 02:04:40;;;;;;;65.28;37.60;;;4.20;99.90;;;;;;5043759;28;20060;-49
2021/12/12 02:07:08;;;;;;;75.53;38.75;;;4.20;99.90;;;;;;5024362;28;20144;-49
2021/12/12 02:09:35;;;;;;;73.47;37.47;;;4.20;99.90;;;;;;5041601;28;20310;-48
2021/12/12 02:12:03;;;;;;;76.85;39.03;;;4.20;99.90;;;;;;5054209;28;20052;-50
2021/12/12 02:14:32;;;;;;;70.82;40.85;;;4.20;99.90;;;;;;5055940;28;20130;-49
2021/12/12 02:17:05;;;;;;;75.13;39.35;;;4.20;99.90;;;;;;5053891;28;20063;-48
2021/12/12 02:19:42;;;;;;;81.50;40.70;;;4.20;99.90;;;;;;5023731;28;20061;-48
2021/12/12 02:36:17;;;;;;;84.45;42.80;;;4.30;99.90;;;;;;4959741;28;20058;-48
2021/12/12 02:38:43;;;;;;;85.97;42.67;;;4.30;99.90;;;;;;4927118;29;20075;-47
2021/12/12 02:41:14;;;;;;;87.00;45.47;;;4.30;99.90;;;;;;4941386;28;20115;-53
2021/12/12 02:43:47;;;;;;;79.00;41.33;;;4.30;99.90;;;;;;4930245;28;20204;-51
2021/12/12 02:46:16;;;;;;;87.88;43.13;;;4.40;99.90;;;;;;4959592;28;20050;-48
2021/12/12 02:48:46;;;;;;;92.07;44.63;;;4.40;99.90;;;;;;4959935;28;20118;-49
2021/12/12 02:51:16;;;;;;;89.30;43.38;;;4.40;99.90;;;;;;4959479;28;20593;-51
2021/12/12 02:53:55;;;;;;;79.65;40.17;;;4.30;99.90;;;;;;4957639;28;20089;-48
2021/12/12 02:56:37;;;;;;;86.75;44.55;;;4.40;99.90;;;;;;4957334;28;20078;-48
2021/12/12 02:59:11;;;;;;;80.63;42.63;;;4.40;99.90;;;;;;4960777;28;20058;-48
2021/12/12 03:01:49;;;;;;;80.82;41.40;;;4.40;99.90;;;;;;5003395;28;20605;-48
2021/12/12 03:04:15;;;;;;;77.57;42.45;;;4.40;99.90;;;;;;5040558;28;20115;-49
2021/12/12 03:06:42;;;;;;;74.35;42.55;;;4.50;99.90;;;;;;5023622;28;20171;-50
2021/12/12 03:09:22;;;;;;;80.78;42.90;;;4.50;99.90;;;;;;5026218;28;20071;-50
2021/12/12 03:11:52;;;;;;;77.78;41.40;;;4.50;99.90;;;;;;5042368;28;20060;-47
2021/12/12 03:14:19;;;;;;;84.25;43.80;;;4.50;99.90;;;;;;5056763;28;20045;-47
2021/12/12 03:16:47;;;;;;;76.95;41.28;;;4.60;99.90;;;;;;5044954;28;20065;-48
2021/12/12 03:19:13;;;;;;;71.15;40.67;;;4.60;99.90;;;;;;5027149;28;20065;-47
2021/12/12 03:21:42;;;;;;;63.00;39.13;;;4.60;99.90;;;;;;5045152;28;20567;-50
2021/12/12 03:24:19;;;;;;;67.97;38.15;;;4.60;99.90;;;;;;5026836;28;20064;-50
2021/12/12 03:26:48;;;;;;;66.20;38.92;;;4.60;99.90;;;;;;5009722;28;20122;-49
2021/12/12 03:29:13;;;;;;;68.75;39.22;;;4.70;99.90;;;;;;5030284;28;20048;-48
2021/12/12 03:31:49;;;;;;;60.20;37.42;;;4.70;99.90;;;;;;5026031;28;20130;-49
2021/12/12 03:34:21;;;;;;;65.20;34.80;;;4.70;99.90;;;;;;4993526;28;20524;-47
2021/12/12 03:36:49;;;;;;;60.00;34.60;;;4.70;99.90;;;;;;5023106;28;20166;-47
2021/12/12 03:39:21;;;;;;;53.15;32.85;;;4.70;99.90;;;;;;5027294;28;20527;-48
2021/12/12 03:41:49;;;;;;;46.38;32.40;;;4.70;99.90;;;;;;5030598;28;20579;-50
2021/12/12 03:44:20;;;;;;;54.28;33.90;;;4.80;99.90;;;;;;5010660;28;20515;-51
2021/12/12 03:46:49;;;;;;;49.60;32.20;;;4.80;99.90;;;;;;5046933;28;20045;-48
2021/12/12 03:49:15;;;;;;;46.42;31.70;;;4.80;99.90;;;;;;5025229;28;20068;-48
2021/12/12 03:51:43;;;;;;;51.80;31.38;;;4.80;99.90;;;;;;5046099;28;20085;-47
2021/12/12 03:54:09;;;;;;;50.15;30.50;;;4.80;99.90;;;;;;5044605;28;20074;-47
2021/12/12 03:56:36;;;;;;;52.08;32.00;;;4.80;99.90;;;;;;5043402;28;20072;-47
2021/12/12 03:59:03;;;;;;;49.20;31.52;;;4.80;99.90;;;;;;5045093;28;20478;-47
2021/12/12 04:01:33;;;;;;;40.25;30.02;;;4.80;99.90;;;;;;5046547;28;20057;-47
2021/12/12 04:04:18;;;;;;;45.67;28.42;;;4.90;99.90;;;;;;5023682;28;20163;-51
2021/12/12 04:06:44;;;;;;;41.65;27.77;;;4.90;99.90;;;;;;5033119;28;20534;-50
2021/12/12 04:09:12;;;;;;;50.28;29.08;;;4.90;99.90;;;;;;5045444;28;20094;-50
2021/12/12 04:11:43;;;;;;;42.95;27.08;;;4.90;99.90;;;;;;5044088;28;20060;-47
2021/12/12 04:14:10;;;;;;;38.60;26.65;;;5.00;99.90;;;;;;5043661;28;20064;-47
2021/12/12 04:16:39;;;;;;;43.05;27.33;;;5.00;99.90;;;;;;5024740;28;20057;-49
2021/12/12 04:19:06;;;;;;;37.30;27.05;;;5.00;99.90;;;;;;5042963;28;20458;-49
2021/12/12 04:21:33;;;;;;;40.22;27.23;;;5.00;99.90;;;;;;5044783;28;20068;-48
2021/12/12 04:24:00;;;;;;;29.02;24.33;;;5.00;99.90;;;;;;5043237;28;20424;-48
2021/12/12 04:26:38;;;;;;;36.10;25.65;;;5.00;99.90;;;;;;5022661;28;20064;-48
2021/12/12 04:29:06;;;;;;;38.08;26.30;;;5.00;99.90;;;;;;5025498;28;20061;-50
2021/12/12 04:31:34;;;;;;;39.47;25.70;;;5.00;99.90;;;;;;5009654;28;20132;-48
2021/12/12 04:34:00;;;;;;;38.10;25.73;;;5.00;99.90;;;;;;5021137;28;20057;-48
2021/12/12 04:36:36;;;;;;;37.78;25.65;;;5.00;99.90;;;;;;5036793;28;20059;-47
2021/12/12 04:39:20;;;;;;;34.80;25.50;;;5.00;99.90;;;;;;5043756;28;20488;-50
2021/12/12 04:41:48;;;;;;;35.00;25.83;;;5.00;99.90;;;;;;5025632;28;20077;-51
2021/12/12 04:44:21;;;;;;;31.95;25.05;;;5.00;99.90;;;;;;5042897;28;20049;-49
2021/12/12 04:49:56;;;;;;;32.67;24.27;;;5.10;99.90;;;;;;5028572;28;20135;-51
2021/12/12 04:52:51;;;;;;;30.63;24.90;;;5.10;99.90;;;;;;5043791;28;20128;-56
2021/12/12 04:55:55;;;;;;;32.42;24.42;;;5.10;99.90;;;;;;4943563;28;20187;-50
2021/12/12 04:58:26;;;;;;;;;;;5.10;99.90;;;;;;4904785;29;20111;-47
2021/12/12 05:01:45;;;;;;;37.58;25.40;;;5.10;99.90;;;;;;4942990;28;19930;-49
2021/12/12 05:04:22;;;;;;;34.40;25.90;;;5.10;99.90;;;;;;4917844;29;20112;-47
2021/12/12 05:06:54;;;;;;;34.80;25.60;;;5.10;99.90;;;;;;4907223;29;20067;-47
2021/12/12 05:09:28;;;;;;;39.67;27.52;;;5.20;99.90;;;;;;4906691;29;20092;-48
2021/12/12 05:12:16;;;;;;;35.53;27.70;;;5.10;99.90;;;;;;4906844;29;20102;-48
2021/12/12 05:14:50;;;;;;;34.65;28.13;;;5.20;99.90;;;;;;4913832;29;20058;-47
2021/12/12 05:17:21;;;;;;;33.85;26.98;;;5.20;99.90;;;;;;4911692;29;20055;-47
2021/12/12 05:19:52;;;;;;;37.33;30.63;;;5.20;99.90;;;;;;4906808;29;20607;-48
2021/12/12 05:22:25;;;;;;;45.78;29.45;;;5.30;99.90;;;;;;4901995;29;20071;-46
2021/12/12 05:24:52;;;;;;;;;;;5.20;99.90;;;;;;4907899;29;20063;-48
2021/12/12 05:27:22;;;;;;;45.38;29.17;;;5.30;99.90;;;;;;4906628;29;20060;-51
2021/12/12 05:30:10;;;;;;;44.50;30.98;;;5.30;99.90;;;;;;4899765;29;20063;-47
2021/12/12 05:32:37;;;;;;;46.30;32.13;;;5.20;99.90;;;;;;4932980;28;20062;-48
2021/12/12 05:35:05;;;;;;;52.50;33.22;;;5.30;99.90;;;;;;4934732;28;20074;-51
2021/12/12 05:37:32;;;;;;;50.35;33.55;;;5.20;99.90;;;;;;4945193;28;20089;-48
2021/12/12 05:40:02;;;;;;;56.58;34.60;;;5.20;99.90;;;;;;4998024;28;20183;-47
2021/12/12 05:42:29;;;;;;;53.95;34.65;;;5.20;99.90;;;;;;5004167;28;20439;-47
2021/12/12 05:44:55;;;;;;;52.65;35.45;;;5.20;99.90;;;;;;5004766;28;20061;-48
2021/12/12 05:47:21;;;;;;;54.55;36.92;;;5.30;99.90;;;;;;4985661;28;20065;-47
2021/12/12 05:49:47;;;;;;;59.22;35.83;;;5.20;99.90;;;;;;4984417;28;20054;-47
2021/12/12 05:52:17;;;;;;;62.10;37.90;;;5.30;99.90;;;;;;4989338;28;20131;-47
2021/12/12 05:54:45;;;;;;;58.83;37.45;;;5.20;99.90;;;;;;4989126;28;20054;-48
2021/12/12 05:57:16;;;;;;;64.55;40.05;;;5.30;99.90;;;;;;5008507;28;20139;-54
2021/12/12 05:59:42;;;;;;;65.65;38.42;;;5.30;99.90;;;;;;5019482;28;20070;-50
2021/12/12 06:02:27;;;;;;;71.05;37.65;;;5.30;99.90;;;;;;4991141;28;20097;-50
2021/12/12 06:04:57;;;;;;;65.88;36.67;;;5.30;99.90;;;;;;4989852;28;20136;-47
2021/12/12 06:07:24;;;;;;;62.03;36.70;;;5.40;99.90;;;;;;5005059;28;20507;-47
2021/12/12 06:09:50;;;;;;;64.40;37.10;;;5.30;99.90;;;;;;4988555;28;20091;-50
2021/12/12 06:12:18;;;;;;;67.68;36.67;;;5.30;99.90;;;;;;4988601;28;20491;-49
2021/12/12 06:14:45;;;;;;;78.30;39.72;;;5.30;99.90;;;;;;5004187;28;20064;-48
2021/12/12 06:17:14;;;;;;;77.63;38.72;;;5.40;99.90;;;;;;5003515;28;20137;-48
2021/12/12 06:19:41;;;;;;;71.30;39.15;;;5.40;99.90;;;;;;4988241;28;20471;-46
2021/12/12 06:22:09;;;;;;;83.43;40.28;;;5.40;99.90;;;;;;4989797;28;20179;-48
2021/12/12 06:24:37;;;;;;;129.15;43.40;;;5.40;99.90;;;;;;5014930;28;20437;-47
2021/12/12 06:27:12;;;;;;;80.00;39.20;;;5.40;99.90;;;;;;5019960;28;20503;-49
2021/12/12 06:29:38;;;;;;;84.03;38.83;;;5.40;99.90;;;;;;4996466;28;20057;-48
2021/12/12 06:32:04;;;;;;;173.25;44.33;;;5.50;99.90;;;;;;4975416;28;20427;-49
2021/12/12 06:34:30;;;;;;;92.28;40.72;;;5.40;99.90;;;;;;5002512;28;20131;-47
2021/12/12 06:36:59;;;;;;;74.38;37.45;;;5.50;99.90;;;;;;5004067;28;20085;-47
2021/12/12 06:39:25;;;;;;;84.20;40.42;;;5.50;99.90;;;;;;5013543;28;20487;-49
2021/12/12 06:41:54;;;;;;;86.80;39.35;;;5.50;99.90;;;;;;5008225;28;20525;-48
2021/12/12 06:44:21;;;;;;;76.72;37.53;;;5.50;99.90;;;;;;5028628;28;20056;-46
2021/12/12 06:46:49;;;;;;;140.25;39.35;;;5.50;99.90;;;;;;5010868;28;20462;-47
2021/12/12 06:49:17;;;;;;;103.85;37.67;;;5.50;99.90;;;;;;5012479;28;20055;-46
2021/12/12 06:51:50;;;;;;;92.63;37.92;;;5.60;99.90;;;;;;5026611;28;20065;-47
2021/12/12 06:54:19;;;;;;;78.95;36.00;;;5.50;99.90;;;;;;5011392;28;20447;-46
2021/12/12 06:56:48;;;;;;;78.78;37.00;;;5.60;99.90;;;;;;5010832;28;20106;-50
2021/12/12 06:59:14;;;;;;;88.57;36.67;;;5.50;99.90;;;;;;5027936;28;20059;-49
2021/12/12 07:01:41;;;;;;;67.97;35.28;;;5.50;99.90;;;;;;5044935;28;20056;-50
2021/12/12 07:04:10;;;;;;;72.70;35.83;;;5.60;99.90;;;;;;5024404;28;20799;-50
2021/12/12 07:06:37;;;;;;;81.35;35.45;;;5.60;99.90;;;;;;5031982;28;20705;-47
2021/12/12 07:09:10;;;;;;;73.35;36.58;;;5.60;99.90;;;;;;5027812;28;20057;-53
2021/12/12 07:11:38;;;;;;;80.13;36.75;;;5.60;99.90;;;;;;5010989;28;20041;-47
2021/12/12 07:14:06;;;;;;;76.75;35.38;;;5.70;99.90;;;;;;5044186;28;20057;-48
2021/12/12 07:16:32;;;;;;;89.07;37.97;;;5.70;99.90;;;;;;5044992;28;20056;-47
2021/12/12 07:18:58;;;;;;;84.43;37.63;;;5.70;99.90;;;;;;5059248;28;20044;-47
2021/12/12 07:21:25;;;;;;;85.20;38.70;;;5.70;99.90;;;;;;5052627;28;20133;-48
2021/12/12 07:23:52;;;;;;;93.55;39.28;;;5.80;99.90;;;;;;5041165;28;20060;-48
2021/12/12 07:26:21;;;;;;;88.38;36.47;;;5.80;99.90;;;;;;5047753;28;20057;-50
2021/12/12 07:28:48;;;;;;;88.95;38.38;;;5.80;99.90;;;;;;5026010;28;20061;-48
2021/12/12 07:31:19;;;;;;;97.22;39.50;;;5.80;99.90;;;;;;5044876;28;20519;-50
2021/12/12 07:33:55;;;;;;;91.95;37.85;;;5.80;99.90;;;;;;5026578;28;20680;-47
2021/12/12 07:36:22;;;;;;;94.65;39.20;;;5.90;99.90;;;;;;5044290;28;20515;-47
2021/12/12 07:38:52;;;;;;;99.82;40.85;;;5.90;99.90;;;;;;5027049;28;20057;-50
2021/12/12 07:41:21;;;;;;;107.97;43.20;;;5.90;99.90;;;;;;5010690;28;20428;-47
2021/12/12 07:43:48;;;;;;;118.18;44.05;;;6.00;99.90;;;;;;5026393;28;20278;-48
2021/12/12 07:46:14;;;;;;;121.30;43.80;;;6.00;99.90;;;;;;5025870;28;20096;-47
2021/12/12 07:48:44;;;;;;;118.07;42.28;;;6.10;99.90;;;;;;5042677;28;20071;-47
2021/12/12 07:51:10;;;;;;;100.82;39.10;;;6.10;99.90;;;;;;5044217;28;20096;-47
2021/12/12 07:53:37;;;;;;;113.55;44.65;;;6.10;99.90;;;;;;5050745;28;20059;-47
2021/12/12 07:56:05;;;;;;;114.65;43.17;;;6.10;99.90;;;;;;5031362;28;20060;-49
2021/12/12 07:58:31;;;;;;;90.22;40.50;;;6.20;99.90;;;;;;5043618;28;20507;-47
2021/12/12 08:00:59;;;;;;;106.55;43.03;;;6.20;99.90;;;;;;5056557;28;20114;-48
2021/12/12 08:03:30;;;;;;;97.93;41.70;;;6.30;99.90;;;;;;5043712;28;20566;-49
2021/12/12 08:06:02;;;;;;;96.68;38.50;;;6.30;99.90;;;;;;5036950;28;20510;-48
2021/12/12 08:08:29;;;;;;;95.93;40.42;;;6.40;99.90;;;;;;5043131;28;21919;-49
2021/12/12 08:11:04;;;;;;;105.28;43.63;;;6.50;99.90;;;;;;5043587;28;20057;-47
2021/12/12 08:13:31;;;;;;;113.70;42.83;;;6.50;99.90;;;;;;5049402;28;20053;-48
2021/12/12 08:15:58;;;;;;;109.70;42.47;;;6.50;99.90;;;;;;5029522;28;20064;-50
2021/12/12 08:18:25;;;;;;;108.10;42.53;;;6.50;99.90;;;;;;5046376;28;20099;-52
2021/12/12 08:20:54;;;;;;;100.45;42.55;;;6.60;99.90;;;;;;5025338;28;20452;-50
2021/12/12 08:23:22;;;;;;;105.07;42.10;;;6.60;99.90;;;;;;5044835;28;20463;-50
2021/12/12 08:25:50;;;;;;;115.13;43.03;;;6.60;99.90;;;;;;5023705;28;20061;-49
2021/12/12 08:28:18;;;;;;;112.15;44.38;;;6.70;99.90;;;;;;5043080;28;20061;-48
2021/12/12 08:30:45;;;;;;;118.80;44.15;;;6.70;99.90;;;;;;5049271;28;20499;-47
2021/12/12 08:33:12;;;;;;;106.22;43.17;;;6.70;99.90;;;;;;5044298;28;20059;-47
2021/12/12 08:35:40;;;;;;;124.30;45.05;;;6.70;99.90;;;;;;5024878;28;20107;-47
2021/12/12 08:38:08;;;;;;;132.98;48.17;;;6.80;99.90;;;;;;5038208;28;20060;-48
2021/12/12 08:40:43;;;;;;;137.27;46.92;;;6.80;99.90;;;;;;5013244;28;20093;-47
2021/12/12 08:43:13;;;;;;;121.72;45.17;;;6.80;99.90;;;;;;5024627;28;20061;-48
2021/12/12 08:45:45;;;;;;;140.98;48.78;;;6.80;99.90;;;;;;5023602;28;20431;-47
2021/12/12 08:48:13;;;;;;;135.23;48.50;;;6.90;99.90;;;;;;5042782;28;20061;-48
2021/12/12 08:50:45;;;;;;;139.55;50.17;;;6.90;99.90;;;;;;5042727;28;20464;-48
2021/12/12 08:53:11;;;;;;;135.93;48.20;;;6.90;99.90;;;;;;5024900;28;20057;-47
2021/12/12 08:55:43;;;;;;;118.90;44.50;;;7.00;99.90;;;;;;5042786;28;20060;-48
2021/12/12 08:58:14;;;;;;;152.32;48.72;;;7.00;99.90;;;;;;5042674;28;20139;-49
2021/12/12 09:01:03;;;;;;;148.93;49.08;;;7.00;99.90;;;;;;5043890;28;20057;-49
2021/12/12 09:03:36;;;;;;;139.55;46.85;;;7.00;99.90;;;;;;5023365;28;20061;-48
2021/12/12 09:06:04;;;;;;;142.70;46.88;;;7.00;99.90;;;;;;5023233;28;20115;-47
2021/12/12 09:08:55;;;;;;;144.00;47.30;;;7.00;99.90;;;;;;5043180;28;20511;-50
2021/12/12 09:11:33;;;;;;;147.70;45.45;;;7.10;99.90;;;;;;5024923;28;20111;-47
2021/12/12 09:14:15;;;;;;;129.00;43.85;;;7.10;99.90;;;;;;5043458;28;20091;-48
2021/12/12 09:16:49;;;;;;;156.95;48.60;;;7.10;99.90;;;;;;5043739;28;20052;-50
2021/12/12 09:19:51;;;;;;;131.85;44.78;;;7.20;99.90;;;;;;5043731;28;20554;-47
2021/12/12 09:22:29;;;;;;;123.47;42.83;;;7.20;99.90;;;;;;5005060;28;20056;-48
2021/12/12 09:25:24;;;;;;;135.25;44.65;;;7.20;99.90;;;;;;5045004;28;20052;-50
2021/12/12 09:28:01;;;;;;;152.90;46.60;;;7.20;99.90;;;;;;5044059;28;20135;-55
2021/12/12 09:30:27;;;;;;;140.35;46.58;;;7.20;99.90;;;;;;5044112;28;20092;-50
2021/12/12 09:33:05;;;;;;;138.20;46.15;;;7.20;99.90;;;;;;5043773;28;20099;-48
2021/12/12 09:36:01;;;;;;;135.18;45.53;;;7.30;99.90;;;;;;5011682;28;20418;-47
2021/12/12 09:38:36;;;;;;;124.38;44.58;;;7.30;99.90;;;;;;5042148;28;20049;-47
2021/12/12 09:41:45;;;;;;;177.05;48.33;;;7.30;99.90;;;;;;5041773;28;20088;-47
2021/12/12 09:44:51;;;;;;;118.50;40.55;;;7.40;99.90;;;;;;4925332;29;20054;-48
2021/12/12 09:47:57;;;;;;;142.73;45.20;;;7.40;99.90;;;;;;4931322;29;20094;-47
2021/12/12 09:53:48;;;;;;;189.32;46.70;;;7.40;99.90;;;;;;4922447;29;20757;-48
2021/12/12 09:56:48;;;;;;;124.57;43.28;;;7.50;99.90;;;;;;4937112;29;20062;-47
2021/12/12 09:59:19;;;;;;;131.07;43.70;;;7.50;99.90;;;;;;4940820;28;20050;-48
2021/12/12 10:02:13;;;;;;;128.10;45.03;;;7.50;99.90;;;;;;4941411;28;20230;-47
2021/12/12 10:04:57;;;;;;;;;;;7.50;99.90;;;;;;4938230;28;20565;-48
2021/12/12 10:07:43;;;;;;;120.80;38.65;;;7.60;99.90;;;;;;4906909;29;20062;-47
2021/12/12 10:10:55;;;;;;;133.35;41.80;;;7.60;99.90;;;;;;4898803;29;20113;-49
2021/12/12 10:13:41;;;;;;;102.32;37.38;;;7.60;99.90;;;;;;4859310;29;20069;-48
2021/12/12 10:16:24;;;;;;;134.70;41.30;;;7.70;99.90;;;;;;4868819;29;20554;-48
2021/12/12 10:18:55;;;;;;;101.25;37.63;;;7.80;99.90;;;;;;4888100;29;20056;-48
2021/12/12 10:21:30;;;;;;;116.03;39.10;;;7.70;99.90;;;;;;4889514;29;20070;-49
2021/12/12 10:24:37;;;;;;;104.45;39.22;;;7.80;99.90;;;;;;4926169;29;20087;-47
2021/12/12 10:27:50;;;;;;;116.10;39.75;;;7.80;99.90;;;;;;4887180;29;20064;-49
2021/12/12 10:30:26;;;;;;;114.20;38.15;;;7.80;99.90;;;;;;4822979;29;20133;-47
2021/12/12 10:33:11;;;;;;;109.38;40.58;;;7.80;99.90;;;;;;4810172;29;20216;-51
2021/12/12 10:35:53;;;;;;;96.18;36.42;;;7.90;99.90;;;;;;4845919;29;20156;-47
2021/12/12 10:38:42;;;;;;;109.22;37.63;;;7.90;99.90;;;;;;4841959;29;20062;-50
2021/12/12 10:41:18;;;;;;;106.68;37.10;;;7.90;99.90;;;;;;4854815;29;20124;-51
2021/12/12 10:44:15;;;;;;;101.60;37.47;;;7.90;99.90;;;;;;4853304;29;20136;-47
2021/12/12 10:47:09;;;;;;;102.03;35.67;;;7.90;99.90;;;;;;4830700;29;20592;-48
2021/12/12 10:49:55;;;;;;;82.88;32.45;;;8.00;99.90;;;;;;4827289;29;20069;-48
2021/12/12 10:52:45;;;;;;;84.70;32.53;;;8.00;99.90;;;;;;4850033;29;20085;-50
2021/12/12 10:55:17;;;;;;;76.43;31.48;;;8.00;99.90;;;;;;4848712;29;20726;-49
2021/12/12 10:57:48;;;;;;;85.93;31.85;;;8.00;99.90;;;;;;4866346;29;20491;-47
2021/12/12 11:00:20;;;;;;;98.70;33.67;;;8.00;99.90;;;;;;4882307;29;20181;-48
2021/12/12 11:03:02;;;;;;;93.50;34.93;;;8.10;99.90;;;;;;4869254;29;20066;-48
2021/12/12 11:06:01;;;;;;;64.85;29.35;;;8.10;99.90;;;;;;4899984;29;20821;-48
2021/12/12 11:08:54;;;;;;;83.47;31.48;;;8.10;99.90;;;;;;4952970;28;20054;-47
2021/12/12 11:11:24;;;;;;;106.10;38.42;;;8.20;99.90;;;;;;4961987;28;20086;-47
2021/12/12 11:14:10;;;;;;;86.45;31.80;;;8.20;99.90;;;;;;4962968;28;20561;-47
2021/12/12 11:16:44;;;;;;;71.85;29.02;;;8.20;99.90;;;;;;4928346;29;20055;-48
2021/12/12 11:19:17;;;;;;;94.63;31.70;;;8.20;99.90;;;;;;4926480;29;20106;-47
2021/12/12 11:21:53;;;;;;;79.68;29.60;;;8.20;99.90;;;;;;4943888;28;20069;-47
2021/12/12 11:24:26;;;;;;;87.32;30.70;;;8.20;99.90;;;;;;5024316;28;20059;-50
2021/12/12 11:27:12;;;;;;;84.82;31.73;;;8.20;99.90;;;;;;5025552;28;20094;-50
2021/12/12 11:29:45;;;;;;;97.78;33.80;;;8.20;99.90;;;;;;5024538;28;20408;-51
2021/12/12 11:32:37;;;;;;;84.50;29.55;;;8.20;99.90;;;;;;5043571;28;20460;-47
2021/12/12 11:35:08;;;;;;;78.88;29.60;;;8.20;99.90;;;;;;5024161;28;20049;-49
2021/12/12 11:37:42;;;;;;;88.90;29.63;;;8.30;99.90;;;;;;5044709;28;20053;-49
2021/12/12 11:40:23;;;;;;;83.32;29.67;;;8.20;99.90;;;;;;5024404;28;20067;-50
2021/12/12 11:42:58;;;;;;;82.80;29.45;;;8.30;99.90;;;;;;5042722;28;20087;-49
2021/12/12 11:45:30;;;;;;;80.95;29.63;;;8.30;99.90;;;;;;5029691;28;20065;-48
2021/12/12 11:48:02;;;;;;;83.70;29.30;;;8.30;99.90;;;;;;5027232;28;20289;-53
2021/12/12 11:50:53;;;;;;;75.10;28.05;;;8.30;99.90;;;;;;5044287;28;20370;-49
2021/12/12 11:53:29;;;;;;;67.72;27.13;;;8.30;99.90;;;;;;5046371;28;20068;-48
2021/12/12 11:56:06;;;;;;;75.03;28.92;;;8.40;99.90;;;;;;5026766;28;20118;-47
2021/12/12 11:58:53;;;;;;;65.22;27.20;;;8.40;99.90;;;;;;5023590;28;20126;-48
2021/12/12 12:01:46;;;;;;;71.13;27.30;;;8.40;99.90;;;;;;5029004;28;20072;-48
2021/12/12 12:04:36;;;;;;;61.53;25.45;;;8.40;99.90;;;;;;5021584;28;20065;-49
2021/12/12 12:07:24;;;;;;;65.75;27.60;;;8.50;99.90;;;;;;5027995;28;20059;-49
2021/12/12 12:10:03;;;;;;;75.68;29.67;;;8.50;99.90;;;;;;5054716;28;20052;-47
2021/12/12 12:13:02;;;;;;;72.85;30.75;;;8.50;99.90;;;;;;5056632;28;20403;-47
2021/12/12 12:15:53;;;;;;;71.75;28.08;;;8.50;99.90;;;;;;5025017;28;20057;-51
2021/12/12 12:18:40;;;;;;;78.93;30.17;;;8.50;99.90;;;;;;5043947;28;20072;-48
2021/12/12 12:21:12;;;;;;;75.65;30.58;;;8.60;99.90;;;;;;5043690;28;20113;-49
2021/12/12 12:24:11;;;;;;;79.53;30.20;;;8.60;99.90;;;;;;5043630;28;20122;-47
2021/12/12 12:27:04;;;;;;;69.22;26.55;;;8.60;99.90;;;;;;5043894;28;20147;-48
2021/12/12 12:29:33;;;;;;;79.05;29.45;;;8.60;99.90;;;;;;5023229;28;20063;-50
2021/12/12 12:32:05;;;;;;;69.82;40.65;;;8.70;99.90;;;;;;5023229;28;20496;-49
2021/12/12 12:34:49;;;;;;;89.78;37.25;;;8.80;99.90;;;;;;5023057;28;21136;-49
2021/12/12 12:37:40;;;;;;;78.50;30.35;;;8.70;99.90;;;;;;5043354;28;20065;-48
2021/12/12 12:40:36;;;;;;;86.03;41.42;;;8.80;99.90;;;;;;5018331;28;20056;-47
2021/12/12 12:43:39;;;;;;;84.68;31.00;;;8.80;99.90;;;;;;5027411;28;20546;-47
2021/12/12 12:46:24;;;;;;;76.03;29.97;;;8.90;99.90;;;;;;4988089;28;20053;-48
2021/12/12 12:49:24;;;;;;;84.57;34.28;;;8.90;99.90;;;;;;5022344;28;20187;-50
2021/12/12 12:52:30;;;;;;;87.70;42.50;;;9.00;99.90;;;;;;4986439;28;20057;-48
2021/12/12 12:55:33;;;;;;;82.82;43.40;;;9.00;99.90;;;;;;5023884;28;20086;-48
2021/12/12 12:58:21;;;;;;;74.57;35.07;;;8.90;99.90;;;;;;5034151;28;20828;-54
2021/12/12 13:00:57;;;;;;;64.88;28.05;;;8.90;99.90;;;;;;5028813;28;20053;-53
2021/12/12 13:04:16;;;;;;;62.55;23.77;;;8.90;99.90;;;;;;5095708;27;20399;-46
2021/12/12 13:07:06;;;;;;;68.68;25.73;;;8.90;99.90;;;;;;4999264;28;20192;-46
2021/12/12 13:09:39;;;;;;;60.22;23.55;;;9.00;99.90;;;;;;4997144;28;20058;-45
2021/12/12 13:12:29;;;;;;;;;;;8.90;99.90;;;;;;5003330;28;20072;-45
2021/12/12 13:15:13;;;;;;;73.22;24.55;;;8.90;99.90;;;;;;4989364;28;19925;-45
2021/12/12 13:17:43;;;;;;;86.50;30.90;;;8.90;99.90;;;;;;4981218;28;20069;-46
2021/12/12 13:20:22;;;;;;;74.22;25.92;;;8.90;99.90;;;;;;4983285;28;20109;-47
2021/12/12 13:23:07;;;;;;;75.60;25.38;;;8.80;99.90;;;;;;5003198;28;20552;-47
2021/12/12 13:25:39;;;;;;;90.68;28.30;;;8.90;99.90;;;;;;4996421;28;20101;-49
2021/12/12 13:28:17;;;;;;;104.15;34.40;;;8.90;99.90;;;;;;4996243;28;20622;-46
2021/12/12 13:30:58;;;;;;;102.22;29.70;;;8.90;99.90;;;;;;4963734;28;20276;-46
2021/12/12 13:33:28;;;;;;;81.47;26.15;;;8.90;99.90;;;;;;4974737;28;20588;-47
2021/12/12 13:36:13;;;;;;;122.97;31.05;;;8.90;99.90;;;;;;5003119;28;20050;-47